createdAt,value
2022-12-17T00:00:41.877Z,49.43
2022-12-17T00:03:29.791Z,47.60
2022-12-17T00:06:15.657Z,50.07
2022-12-17T00:09:01.493Z,49.67
2022-12-17T00:11:47.293Z,47.87
2022-12-17T00:14:36.327Z,46.23
2022-12-17T00:17:21.243Z,51.03
2022-12-17T00:20:07.024Z,45.20
2022-12-17T00:22:52.884Z,46.57
2022-12-17T00:25:39.296Z,48.60
2022-12-17T00:28:28.980Z,53.03
2022-12-17T00:31:16.067Z,51.17
2022-12-17T00:34:01.567Z,49.93
2022-12-17T00:36:47.113Z,48.47
2022-12-17T00:39:32.779Z,51.20
2022-12-17T00:42:18.493Z,52.03
2022-12-17T00:45:04.289Z,49.27
2022-12-17T00:47:51.227Z,54.77
2022-12-17T00:50:36.981Z,49.97
2022-12-17T00:53:22.636Z,54.83
2022-12-17T00:56:08.432Z,46.97
2022-12-17T00:58:55.147Z,48.37
2022-12-17T01:01:41.071Z,48.37
2022-12-17T01:04:28.320Z,49.03
2022-12-17T01:07:13.730Z,53.40
2022-12-17T01:09:59.082Z,55.10
2022-12-17T01:12:44.996Z,56.80
2022-12-17T01:15:30.779Z,60.13
2022-12-17T01:18:16.642Z,53.97
2022-12-17T01:21:03.586Z,49.47
2022-12-17T01:23:48.989Z,53.77
2022-12-17T01:26:34.755Z,52.03
2022-12-17T01:29:20.512Z,47.13
2022-12-17T01:32:06.414Z,49.47
2022-12-17T01:34:52.343Z,50.13
2022-12-17T01:37:39.080Z,50.27
2022-12-17T01:40:26.256Z,56.63
2022-12-17T01:43:11.862Z,51.87
2022-12-17T01:46:01.721Z,52.33
2022-12-17T01:48:49.505Z,48.13
2022-12-17T01:51:36.584Z,49.57
2022-12-17T01:54:24.550Z,42.80
2022-12-17T01:57:25.576Z,46.77
2022-12-17T02:00:17.550Z,45.17
2022-12-17T02:03:17.812Z,49.23
2022-12-17T02:06:16.991Z,43.73
2022-12-17T02:09:16.327Z,42.03
2022-12-17T02:12:14.604Z,48.37
2022-12-17T02:15:06.902Z,47.93
2022-12-17T02:18:02.677Z,45.53
2022-12-17T02:20:56.402Z,48.00
2022-12-17T02:24:01.208Z,46.13
2022-12-17T02:26:57.411Z,50.23
2022-12-17T02:29:47.735Z,50.97
2022-12-17T02:32:36.411Z,54.90
2022-12-17T02:35:31.614Z,44.63
2022-12-17T02:38:17.424Z,44.73
2022-12-17T02:41:07.072Z,51.73
2022-12-17T02:43:54.196Z,47.37
2022-12-17T02:46:39.812Z,47.63
2022-12-17T02:49:25.593Z,47.23
2022-12-17T02:52:13.911Z,47.70
2022-12-17T02:54:59.252Z,48.90
2022-12-17T02:57:48.439Z,50.00
2022-12-17T03:00:38.009Z,42.47
2022-12-17T03:03:23.854Z,44.33
2022-12-17T03:06:09.688Z,42.67
2022-12-17T03:08:55.335Z,46.23
2022-12-17T03:11:41.079Z,48.80
2022-12-17T03:14:38.309Z,43.80
2022-12-17T03:17:25.068Z,46.30
2022-12-17T03:20:10.873Z,45.30
2022-12-17T03:22:56.707Z,47.43
2022-12-17T03:25:42.326Z,46.23
2022-12-17T03:28:30.423Z,49.90
2022-12-17T03:31:17.108Z,45.43
2022-12-17T03:34:04.388Z,43.40
2022-12-17T03:36:49.912Z,44.40
2022-12-17T03:39:35.539Z,45.30
2022-12-17T03:42:32.775Z,46.63
2022-12-17T03:45:18.313Z,44.13
2022-12-17T03:48:03.942Z,44.30
2022-12-17T03:50:50.963Z,55.10
2022-12-17T03:53:36.970Z,52.30
2022-12-17T03:56:23.159Z,53.87
2022-12-17T03:59:09.019Z,47.67
2022-12-17T04:01:54.923Z,47.20
2022-12-17T04:04:40.528Z,45.57
2022-12-17T04:07:27.411Z,47.27
2022-12-17T04:10:12.935Z,44.10
2022-12-17T04:12:58.853Z,52.83
2022-12-17T04:15:44.757Z,45.80
2022-12-17T04:18:30.557Z,44.60
2022-12-17T04:21:16.496Z,49.53
2022-12-17T04:24:03.604Z,49.90
2022-12-17T04:26:49.420Z,52.43
2022-12-17T04:29:35.254Z,49.93
2022-12-17T04:32:20.874Z,51.40
2022-12-17T04:35:06.516Z,58.40
2022-12-17T04:37:52.236Z,60.63
2022-12-17T04:40:42.422Z,56.43
2022-12-17T04:43:31.062Z,58.87
2022-12-17T04:46:17.152Z,61.43
2022-12-17T04:49:02.651Z,61.60
2022-12-17T04:51:48.400Z,68.53
2022-12-17T04:54:34.028Z,65.80
2022-12-17T04:57:21.160Z,61.53
2022-12-17T05:00:07.080Z,70.90
2022-12-17T05:02:52.981Z,60.17
2022-12-17T05:05:38.638Z,64.33
2022-12-17T05:08:24.706Z,63.43
2022-12-17T05:11:10.477Z,58.67
2022-12-17T05:13:57.310Z,71.03
2022-12-17T05:16:43.281Z,68.43
2022-12-17T05:19:28.804Z,64.87
2022-12-17T05:22:14.384Z,62.90
2022-12-17T05:24:59.868Z,58.47
2022-12-17T05:27:45.538Z,56.57
2022-12-17T05:30:32.854Z,55.73
2022-12-17T05:33:19.332Z,52.03
2022-12-17T05:36:05.743Z,51.47
2022-12-17T05:38:51.563Z,57.13
2022-12-17T05:41:37.233Z,51.73
2022-12-17T05:44:23.058Z,54.57
2022-12-17T05:47:09.805Z,53.50
2022-12-17T05:49:56.354Z,48.33
2022-12-17T05:52:42.292Z,53.93
2022-12-17T05:55:27.754Z,50.43
2022-12-17T05:58:21.587Z,48.00
2022-12-17T06:01:07.344Z,51.83
2022-12-17T06:04:09.185Z,46.30
2022-12-17T06:06:54.568Z,44.37
2022-12-17T06:09:40.212Z,40.13
2022-12-17T06:12:26.184Z,43.30
2022-12-17T06:15:11.834Z,41.43
2022-12-17T06:17:57.702Z,40.63
2022-12-17T06:20:44.765Z,41.23
2022-12-17T06:23:30.312Z,39.13
2022-12-17T06:26:16.483Z,42.27
2022-12-17T06:29:02.601Z,44.83
2022-12-17T06:31:48.408Z,46.90
2022-12-17T06:34:34.072Z,42.13
2022-12-17T06:37:21.221Z,43.57
2022-12-17T06:40:06.787Z,42.50
2022-12-17T06:42:52.478Z,39.80
2022-12-17T06:45:38.316Z,43.47
2022-12-17T06:48:26.000Z,42.30
2022-12-17T06:51:12.712Z,39.77
2022-12-17T06:54:00.797Z,41.27
2022-12-17T06:56:46.467Z,45.30
2022-12-17T06:59:32.047Z,42.33
2022-12-17T07:02:18.069Z,39.77
2022-12-17T07:05:18.187Z,42.60
2022-12-17T07:08:03.524Z,40.57
2022-12-17T07:10:50.567Z,44.13
2022-12-17T07:13:38.765Z,49.53
2022-12-17T07:16:25.208Z,44.57
2022-12-17T07:19:10.789Z,47.40
2022-12-17T07:21:56.255Z,46.23
2022-12-17T07:24:42.063Z,46.57
2022-12-17T07:27:28.918Z,49.77
2022-12-17T07:30:15.403Z,49.70
2022-12-17T07:33:01.219Z,49.40
2022-12-17T07:35:47.007Z,48.83
2022-12-17T07:38:32.817Z,52.60
2022-12-17T07:41:18.633Z,51.33
2022-12-17T07:44:05.365Z,49.20
2022-12-17T07:46:51.154Z,50.27
2022-12-17T07:49:36.828Z,53.70
2022-12-17T07:52:22.285Z,58.77
2022-12-17T07:55:07.806Z,49.50
2022-12-17T07:57:53.275Z,52.73
2022-12-17T08:00:44.673Z,54.47
2022-12-17T08:03:33.001Z,62.53
2022-12-17T08:06:18.816Z,59.93
2022-12-17T08:09:04.551Z,63.97
2022-12-17T08:11:50.232Z,56.20
2022-12-17T08:14:36.041Z,62.87
2022-12-17T08:17:22.882Z,57.13
2022-12-17T08:20:08.654Z,58.97
2022-12-17T08:22:54.536Z,58.17
2022-12-17T08:25:40.182Z,54.30
2022-12-17T08:28:49.513Z,60.37
2022-12-17T08:31:34.034Z,59.70
2022-12-17T08:34:21.179Z,58.03
2022-12-17T08:37:06.743Z,61.67
2022-12-17T08:39:52.217Z,60.03
2022-12-17T08:42:37.919Z,61.73
2022-12-17T08:45:25.068Z,62.33
2022-12-17T08:48:10.859Z,62.40
2022-12-17T08:50:57.708Z,64.70
2022-12-17T08:53:43.638Z,59.00
2022-12-17T08:56:29.504Z,59.80
2022-12-17T08:59:15.570Z,55.73
2022-12-17T09:02:01.559Z,54.97
2022-12-17T09:04:46.940Z,55.90
2022-12-17T09:07:33.783Z,56.87
2022-12-17T09:10:19.327Z,54.70
2022-12-17T09:13:05.380Z,61.37
2022-12-17T09:15:50.848Z,54.60
2022-12-17T09:18:38.128Z,55.93
2022-12-17T09:21:24.225Z,53.97
2022-12-17T09:24:11.050Z,62.43
2022-12-17T09:26:56.776Z,52.47
2022-12-17T09:29:42.585Z,52.83
2022-12-17T09:32:28.467Z,56.37
2022-12-17T09:35:14.235Z,60.63
2022-12-17T09:38:00.101Z,52.90
2022-12-17T09:40:55.801Z,57.53
2022-12-17T09:43:53.486Z,57.67
2022-12-17T09:46:47.706Z,67.50
2022-12-17T09:49:45.080Z,54.70
2022-12-17T09:52:41.446Z,58.60
2022-12-17T09:55:39.956Z,52.40
2022-12-17T09:58:38.934Z,57.83
2022-12-17T10:01:29.278Z,55.43
2022-12-17T10:04:15.224Z,55.87
2022-12-17T10:07:00.791Z,54.17
2022-12-17T10:09:49.893Z,64.13
2022-12-17T10:12:39.708Z,60.70
2022-12-17T10:15:32.699Z,63.70
2022-12-17T10:18:25.774Z,63.00
2022-12-17T10:21:17.448Z,60.70
2022-12-17T10:24:03.203Z,64.10
2022-12-17T10:26:51.958Z,56.27
2022-12-17T10:29:47.325Z,66.80
2022-12-17T10:32:42.952Z,58.47
2022-12-17T10:35:37.170Z,53.50
2022-12-17T10:38:30.955Z,56.27
2022-12-17T10:41:16.651Z,59.37
2022-12-17T10:44:02.374Z,49.60
2022-12-17T10:46:50.210Z,58.77
2022-12-17T10:49:39.846Z,47.97
2022-12-17T10:52:50.123Z,50.10
2022-12-17T10:55:43.546Z,50.93
2022-12-17T10:58:34.716Z,54.10
2022-12-17T11:01:21.261Z,63.53
2022-12-17T11:04:10.315Z,56.73
2022-12-17T11:07:04.243Z,53.07
2022-12-17T11:10:09.617Z,58.13
2022-12-17T11:12:58.220Z,59.07
2022-12-17T11:15:51.202Z,56.80
2022-12-17T11:18:44.619Z,57.10
2022-12-17T11:21:38.204Z,59.03
2022-12-17T11:24:35.570Z,57.60
2022-12-17T11:27:28.020Z,59.93
2022-12-17T11:30:13.905Z,62.00
2022-12-17T11:33:31.148Z,61.97
2022-12-17T11:36:38.452Z,58.97
2022-12-17T11:39:40.164Z,57.97
2022-12-17T11:42:37.479Z,53.47
2022-12-17T11:45:42.670Z,55.97
2022-12-17T11:48:40.173Z,51.90
2022-12-17T11:51:36.569Z,51.87
2022-12-17T11:54:34.283Z,60.63
2022-12-17T11:57:37.100Z,56.63
2022-12-17T12:00:34.241Z,60.07
2022-12-17T12:03:49.292Z,55.10
2022-12-17T12:06:45.279Z,54.17
2022-12-17T12:09:45.265Z,58.83
2022-12-17T12:12:47.610Z,51.70
2022-12-17T12:15:45.955Z,49.30
2022-12-17T12:18:41.749Z,52.47
2022-12-17T12:21:53.544Z,50.90
2022-12-17T12:25:17.888Z,51.17
2022-12-17T12:28:17.576Z,52.87
2022-12-17T12:31:17.529Z,48.63
2022-12-17T12:34:12.577Z,45.70
2022-12-17T12:37:02.920Z,43.20
2022-12-17T12:39:58.403Z,48.40
2022-12-17T12:42:55.593Z,56.30
2022-12-17T12:46:00.208Z,46.10
2022-12-17T12:49:01.974Z,48.10
2022-12-17T12:51:54.165Z,52.37
2022-12-17T12:54:48.073Z,48.57
2022-12-17T12:57:52.261Z,52.70
2022-12-17T13:00:46.495Z,51.47
2022-12-17T13:03:49.380Z,47.53
2022-12-17T13:06:48.892Z,49.30
2022-12-17T13:09:38.570Z,47.20
2022-12-17T13:12:28.564Z,52.00
2022-12-17T13:15:17.594Z,48.73
2022-12-17T13:17:57.820Z,42.60
2022-12-17T13:20:30.894Z,51.17
2022-12-17T13:23:27.798Z,45.17
2022-12-17T13:26:22.028Z,45.07
2022-12-17T13:29:13.031Z,48.57
2022-12-17T13:32:03.591Z,45.93
2022-12-17T13:34:49.837Z,46.50
2022-12-17T13:37:34.027Z,45.93
2022-12-17T13:40:20.977Z,47.53
2022-12-17T13:42:50.258Z,48.63
2022-12-17T13:45:23.593Z,43.77
2022-12-17T13:47:57.319Z,47.80
2022-12-17T13:50:36.624Z,47.17
2022-12-17T13:53:12.696Z,47.03
2022-12-17T13:55:40.884Z,43.23
2022-12-17T13:58:24.501Z,44.93
2022-12-17T14:00:53.383Z,38.97
2022-12-17T14:03:37.409Z,43.30
2022-12-17T14:06:13.449Z,45.53
2022-12-17T14:08:42.803Z,46.63
2022-12-17T14:11:30.667Z,46.60
2022-12-17T14:13:59.121Z,42.37
2022-12-17T14:16:27.338Z,51.07
2022-12-17T14:18:59.527Z,41.57
2022-12-17T14:21:29.751Z,46.60
2022-12-17T14:23:58.952Z,44.73
2022-12-17T14:26:27.085Z,51.17
2022-12-17T14:28:57.072Z,48.10
2022-12-17T14:31:29.370Z,49.43
2022-12-17T14:34:11.241Z,47.03
2022-12-17T14:36:44.001Z,46.93
2022-12-17T14:39:21.999Z,43.73
2022-12-17T14:42:07.957Z,40.93
2022-12-17T14:44:52.108Z,45.23
2022-12-17T14:47:24.522Z,48.47
2022-12-17T14:50:04.403Z,46.57
2022-12-17T14:52:39.276Z,49.47
2022-12-17T14:55:36.639Z,44.90
2022-12-17T14:58:21.818Z,47.23
2022-12-17T15:00:55.516Z,49.27
2022-12-17T15:03:28.025Z,48.93
2022-12-17T15:06:02.737Z,47.07
2022-12-17T15:08:38.658Z,49.57
2022-12-17T15:11:07.038Z,53.57
2022-12-17T15:13:35.133Z,48.03
2022-12-17T15:16:03.237Z,50.50
2022-12-17T15:18:31.290Z,51.83
2022-12-17T15:21:02.485Z,57.20
2022-12-17T15:23:32.261Z,57.27
2022-12-17T15:26:00.357Z,54.67
2022-12-17T15:28:28.543Z,60.83
2022-12-17T15:30:56.652Z,59.00
2022-12-17T15:33:24.793Z,55.20
2022-12-17T15:35:52.950Z,62.83
2022-12-17T15:38:22.413Z,62.40
2022-12-17T15:40:53.442Z,58.80
2022-12-17T15:43:20.737Z,70.40
2022-12-17T15:45:51.376Z,65.53
2022-12-17T15:48:23.611Z,67.03
2022-12-17T15:50:51.817Z,62.03
2022-12-17T15:53:19.923Z,70.53
2022-12-17T15:55:49.341Z,65.90
2022-12-17T15:58:19.039Z,68.40
2022-12-17T16:00:47.230Z,68.20
2022-12-17T16:03:15.403Z,65.33
2022-12-17T16:05:43.546Z,67.53
2022-12-17T16:08:11.730Z,68.47
2022-12-17T16:10:40.111Z,68.63
2022-12-17T16:13:09.536Z,68.60
2022-12-17T16:15:37.700Z,70.20
2022-12-17T16:18:05.954Z,69.30
2022-12-17T16:20:34.095Z,67.93
2022-12-17T16:23:02.202Z,65.47
2022-12-17T16:25:30.322Z,68.27
2022-12-17T16:27:58.395Z,66.03
2022-12-17T16:30:27.848Z,67.13
2022-12-17T16:32:58.998Z,58.20
2022-12-17T16:35:28.350Z,65.23
2022-12-17T16:37:56.552Z,58.80
2022-12-17T16:40:24.606Z,67.90
2022-12-17T16:42:52.720Z,65.37
2022-12-17T16:45:20.783Z,62.73
2022-12-17T16:47:50.671Z,68.77
2022-12-17T16:50:18.840Z,72.27
2022-12-17T16:52:47.613Z,70.70
2022-12-17T16:55:15.804Z,73.03
2022-12-17T16:57:43.870Z,75.47
2022-12-17T17:00:13.333Z,72.90
2022-12-17T17:02:42.640Z,70.13
2022-12-17T17:05:12.354Z,77.30
2022-12-17T17:07:40.369Z,70.23
2022-12-17T17:10:09.304Z,70.40
2022-12-17T17:12:37.376Z,66.30
2022-12-17T17:15:06.604Z,82.87
2022-12-17T17:17:54.292Z,79.53
2022-12-17T17:20:24.045Z,72.43
2022-12-17T17:22:52.130Z,68.87
2022-12-17T17:25:21.000Z,70.30
2022-12-17T17:27:49.069Z,67.73
2022-12-17T17:30:17.254Z,68.73
2022-12-17T17:32:45.429Z,71.77
2022-12-17T17:35:13.493Z,73.23
2022-12-17T17:37:42.882Z,77.20
2022-12-17T17:40:13.776Z,80.90
2022-12-17T17:42:41.840Z,74.50
2022-12-17T17:45:10.734Z,78.27
2022-12-17T17:47:38.773Z,74.20
2022-12-17T17:50:07.666Z,69.27
2022-12-17T17:52:35.698Z,70.93
2022-12-17T17:55:06.044Z,72.33
2022-12-17T17:57:34.141Z,76.87
2022-12-17T18:00:02.665Z,76.67
2022-12-17T18:02:31.134Z,71.67
2022-12-17T18:05:02.591Z,86.50
2022-12-17T18:07:31.064Z,77.17
2022-12-17T18:09:59.783Z,78.20
2022-12-17T18:12:47.024Z,80.93
2022-12-17T18:15:16.723Z,78.13
2022-12-17T18:17:48.397Z,80.43
2022-12-17T18:20:17.136Z,81.87
2022-12-17T18:22:46.746Z,77.93
2022-12-17T18:25:16.000Z,79.73
2022-12-17T18:27:45.727Z,69.13
2022-12-17T18:30:16.153Z,77.40
2022-12-17T18:32:44.491Z,72.50
2022-12-17T18:35:12.673Z,78.40
2022-12-17T18:37:40.766Z,77.47
2022-12-17T18:40:10.225Z,73.10
2022-12-17T18:42:55.957Z,83.60
2022-12-17T18:45:25.390Z,67.07
2022-12-17T18:47:53.478Z,73.37
2022-12-17T18:50:21.545Z,72.13
2022-12-17T18:52:50.273Z,76.33
2022-12-17T18:55:18.509Z,62.50
2022-12-17T18:57:47.185Z,71.97
2022-12-17T19:00:15.944Z,59.90
2022-12-17T19:02:45.578Z,65.13
2022-12-17T19:05:13.873Z,63.07
2022-12-17T19:07:41.920Z,64.30
2022-12-17T19:10:11.098Z,60.00
2022-12-17T19:12:39.248Z,63.83
2022-12-17T19:15:09.109Z,67.17
2022-12-17T19:17:37.166Z,69.33
2022-12-17T19:20:08.162Z,135.13
2022-12-17T19:22:36.245Z,67.13
2022-12-17T19:25:04.781Z,66.73
2022-12-17T19:27:32.855Z,64.87
2022-12-17T19:30:00.954Z,68.50
2022-12-17T19:32:29.114Z,74.47
2022-12-17T19:34:57.142Z,73.77
2022-12-17T19:37:26.586Z,73.70
2022-12-17T19:39:54.632Z,66.67
2022-12-17T19:42:25.643Z,71.30
2022-12-17T19:44:55.000Z,75.70
2022-12-17T19:47:24.464Z,83.00
2022-12-17T19:49:52.707Z,69.77
2022-12-17T19:52:20.857Z,67.90
2022-12-17T19:54:50.469Z,64.17
2022-12-17T19:57:18.543Z,71.23
2022-12-17T19:59:46.552Z,77.80
2022-12-17T20:02:17.193Z,77.37
2022-12-17T20:04:45.444Z,68.80
2022-12-17T20:07:13.466Z,60.73
2022-12-17T20:09:44.003Z,100.47
2022-12-17T20:12:14.125Z,76.23
2022-12-17T20:14:42.300Z,67.70
2022-12-17T20:17:10.894Z,68.50
2022-12-17T20:19:39.027Z,62.20
2022-12-17T20:22:07.696Z,61.53
2022-12-17T20:24:37.181Z,60.77
2022-12-17T20:27:05.761Z,59.77
2022-12-17T20:29:35.741Z,61.73
2022-12-17T20:32:04.113Z,61.97
2022-12-17T20:34:32.401Z,61.13
2022-12-17T20:37:00.494Z,67.23
2022-12-17T20:39:28.671Z,59.80
2022-12-17T20:41:57.723Z,67.10
2022-12-17T20:44:25.992Z,64.67
2022-12-17T20:46:55.555Z,60.20
2022-12-17T20:49:23.573Z,57.57
2022-12-17T20:51:51.697Z,61.93
2022-12-17T20:54:19.923Z,69.63
2022-12-17T20:56:48.118Z,62.00
2022-12-17T20:59:19.996Z,62.27
2022-12-17T21:01:55.575Z,65.97
2022-12-17T21:04:25.837Z,59.10
2022-12-17T21:06:54.019Z,67.30
2022-12-17T21:09:25.242Z,66.23
2022-12-17T21:11:53.369Z,58.60
2022-12-17T21:14:21.407Z,61.40
2022-12-17T21:16:49.938Z,66.20
2022-12-17T21:19:20.363Z,59.60
2022-12-17T21:21:50.126Z,65.83
2022-12-17T21:24:18.520Z,57.23
2022-12-17T21:26:47.950Z,72.20
2022-12-17T21:29:17.382Z,66.10
2022-12-17T21:31:49.144Z,70.50
2022-12-17T21:34:22.352Z,67.13
2022-12-17T21:36:52.728Z,65.47
2022-12-17T21:39:21.855Z,60.83
2022-12-17T21:42:04.438Z,63.17
2022-12-17T21:44:32.597Z,67.33
2022-12-17T21:47:00.935Z,71.43
2022-12-17T21:49:29.050Z,69.37
2022-12-17T21:51:59.974Z,64.87
2022-12-17T21:54:28.578Z,70.93
2022-12-17T21:56:56.641Z,63.13
2022-12-17T21:59:24.946Z,65.50
2022-12-17T22:01:53.956Z,69.40
2022-12-17T22:04:22.230Z,62.30
2022-12-17T22:06:51.356Z,61.60
2022-12-17T22:09:39.591Z,65.60
2022-12-17T22:12:30.734Z,63.97
2022-12-17T22:14:58.830Z,67.00
2022-12-17T22:17:27.706Z,63.63
2022-12-17T22:19:55.803Z,57.30
2022-12-17T22:22:23.939Z,60.53
2022-12-17T22:24:53.381Z,59.13
2022-12-17T22:27:21.676Z,60.00
2022-12-17T22:30:10.476Z,56.37
2022-12-17T22:32:56.162Z,59.23
2022-12-17T22:36:33.560Z,58.67
2022-12-17T22:40:44.316Z,56.63
2022-12-17T22:44:33.455Z,56.20
2022-12-17T22:44:48.776Z,59.53
2022-12-17T22:46:43.535Z,55.13
2022-12-17T22:49:11.918Z,56.00
2022-12-17T22:51:42.725Z,51.67
2022-12-17T22:54:14.814Z,51.90
2022-12-17T22:57:27.776Z,54.40
2022-12-17T22:59:32.999Z,55.57
2022-12-17T23:02:01.173Z,61.57
2022-12-17T23:04:29.467Z,55.60
2022-12-17T23:06:57.631Z,51.20
2022-12-17T23:09:25.854Z,62.30
2022-12-17T23:11:55.395Z,50.53
2022-12-17T23:14:24.048Z,58.73
2022-12-17T23:16:52.111Z,52.23
2022-12-17T23:19:20.197Z,57.27
2022-12-17T23:21:48.252Z,55.80
2022-12-17T23:24:16.382Z,58.80
2022-12-17T23:26:44.477Z,55.47
2022-12-17T23:29:19.604Z,55.10
2022-12-17T23:31:48.409Z,58.23
2022-12-17T23:34:16.923Z,56.57
2022-12-17T23:36:45.086Z,57.27
2022-12-17T23:39:13.244Z,58.87
2022-12-17T23:41:41.411Z,54.53
2022-12-17T23:44:09.488Z,52.13
2022-12-17T23:46:39.017Z,53.53
2022-12-17T23:49:07.462Z,55.97
2022-12-17T23:51:35.730Z,63.13
2022-12-17T23:54:03.884Z,57.27
2022-12-17T23:56:32.101Z,52.23
2022-12-17T23:59:02.796Z,49.60
